Friday, September 21, 2018, 9:39 PM EDT
Back to Local

KBML, Berlin Municipal Airport

Location: Milan, NH, United States Lat: 44.583
Local Time: 9:39 PM EDT ( 1:39 GMT) Lon: -71.183
Time Zone: US/Eastern Elev: 1158 ft

Show me the last for .
Show Decoded

2018-09-21 21:10 METAR KBML 220110Z AUTO 12008KT 10SM BKN031 16/14 A2981 RMK AO2 T01610139 =
2018-09-21 20:52 METAR KBML 220052Z AUTO 14006KT 10SM OVC029 16/14 A2982 RMK AO2 SLP098 T01610139
                 =
2018-09-21 19:52 METAR KBML 212352Z AUTO 14009KT 10SM OVC026 16/13 A2985 RMK AO2 SLP110 T01560133
                 10156 20133 56029 =
2018-09-21 18:52 METAR KBML 212252Z AUTO 14006KT 10SM OVC027 16/13 A2987 RMK AO2 SLP117 T01560128
                 =
2018-09-21 17:52 METAR KBML 212152Z AUTO 15006KT 10SM OVC026 15/13 A2991 RMK AO2 SLP130 T01500128
                 =
2018-09-21 16:52 METAR KBML 212052Z AUTO 16009G16KT 10SM OVC029 14/12 A2994 RMK AO2 SLP142
                 T01440117 58040 =
2018-09-21 15:52 METAR KBML 211952Z AUTO 16010KT 10SM OVC027 14/12 A2999 RMK AO2 SLP157 T01440117
                 =
2018-09-21 14:52 METAR KBML 211852Z AUTO 16008G16KT 10SM OVC027 14/12 A3002 RMK AO2 SLP170
                 T01390117 =
2018-09-21 13:52 METAR KBML 211752Z AUTO 16010G17KT 10SM OVC028 13/11 A3006 RMK AO2 RAE30 SLP185
                 P0006 60033 T01330111 10150 20122 58028 $ =
2018-09-21 13:07 METAR KBML 211707Z AUTO 14006KT 5SM -RA BR BKN021 OVC027 13/11 A3011 RMK AO2
                 P0004 T01280111 =
2018-09-21 12:52 METAR KBML 211652Z AUTO VRB03KT 2 1/2SM RA BR BKN021 OVC027 13/11 A3011 RMK AO2
                 SLP201 P0012 T01280111 =
2018-09-21 12:50 METAR KBML 211650Z AUTO 17004KT 2 1/2SM RA BR BKN021 OVC027 12/11 A3011 RMK AO2
                 P0011 =
2018-09-21 11:52 METAR KBML 211552Z AUTO 16011G17KT 8SM -RA OVC029 13/11 A3015 RMK AO2 SLP214
                 P0014 T01280111 =
2018-09-21 11:42 METAR KBML 211542Z AUTO 15006KT 10SM -RA FEW022 OVC029 13/12 A3015 RMK AO2
                 PRESFR P0014 T01280117 =
2018-09-21 11:32 METAR KBML 211532Z AUTO 14009KT 8SM -RA FEW023 BKN030 OVC035 13/12 A3016 RMK AO2
                 P0014 T01280117 =
2018-09-21 11:19 METAR KBML 211519Z AUTO 14007KT 3SM -RA BR BKN022 BKN030 OVC034 13/11 A3017 RMK
                 AO2 P0013 T01280111 =
2018-09-21 11:08 METAR KBML 211508Z AUTO 16006KT 1 3/4SM +RA BR BKN022 OVC033 13/11 A3018 RMK AO2
                 P0010 T01280111 =
2018-09-21 11:03 METAR KBML 211503Z AUTO 17006KT 3SM +RA BR BKN022 BKN035 OVC050 13/11 A3018 RMK
                 AO2 P0004 T01330111 =
2018-09-21 10:52 METAR KBML 211452Z AUTO 15011G21KT 7SM RA SCT024 BKN035 OVC110 13/11 A3016 RMK
                 AO2 RAB1357E10B13 SLP219 P0001 60001 T01330106 56014 =
2018-09-21 10:35 METAR KBML 211435Z AUTO 16012G20KT 10SM -RA FEW025 BKN050 OVC110 14/11 A3016 RMK
                 AO2 RAB1357E10B13 P0000 T01390106 =
2018-09-21 10:11 METAR KBML 211411Z AUTO 15012G21KT 10SM BKN025 OVC035 14/10 A3017 RMK AO2
                 RAB1357E10 P0000 T01440100 =
2018-09-21 09:52 METAR KBML 211352Z AUTO 16010KT 10SM SCT025 BKN036 OVC050 15/11 A3018 RMK AO2
                 RAB39E49 SLP222 P0000 T01500106 =
2018-09-21 08:52 METAR KBML 211252Z AUTO 14006KT 10SM BKN020 OVC028 14/11 A3021 RMK AO2 SLP231
                 T01440111 =
2018-09-21 07:52 METAR KBML 211152Z AUTO 17004KT 10SM OVC019 14/12 A3023 RMK AO2 SLP239 T01390122
                 10139 20094 56007 =
2018-09-21 07:20 METAR KBML 211120Z AUTO 13006KT 10SM BKN015 OVC090 13/12 A3023 RMK AO2 T01330117
                 =
2018-09-21 06:52 METAR KBML 211052Z AUTO VRB03KT 10SM BKN012 BKN021 OVC100 13/12 A3024 RMK AO2
                 SLP242 T01280117 =
2018-09-21 06:41 METAR KBML 211041Z AUTO 16005KT 10SM FEW010 BKN021 OVC100 12/11 A3023 RMK AO2
                 T01170106 =
2018-09-21 05:52 METAR KBML 210952Z AUTO 00000KT 10SM BKN110 10/09 A3024 RMK AO2 SLP242 T01000094
                 =
2018-09-21 04:52 METAR KBML 210852Z AUTO 00000KT 10SM SCT002 BKN120 10/09 A3025 RMK AO2 SLP247
                 T01000094 56008 =
2018-09-21 04:32 METAR KBML 210832Z AUTO 00000KT 3SM BR OVC002 09/09 A3025 RMK AO2 T00940094 =
2018-09-21 04:26 METAR KBML 210826Z AUTO 00000KT 1 1/2SM BR OVC002 09/09 A3025 RMK AO2 T00940094
                 =
2018-09-21 03:58 METAR KBML 210758Z AUTO 00000KT 3/4SM BR OVC002 09/09 A3025 RMK AO2 T00940094 =
2018-09-21 03:52 METAR KBML 210752Z AUTO 00000KT 1 1/2SM BR OVC002 09/09 A3026 RMK AO2 SLP249
                 T00940094 =
2018-09-21 03:43 METAR KBML 210743Z AUTO 00000KT 1SM BR OVC002 09/09 A3026 RMK AO2 T00940089 =
2018-09-21 03:36 METAR KBML 210736Z AUTO 00000KT 1 1/2SM BR OVC002 09/09 A3026 RMK AO2 T00940089
                 =
2018-09-21 03:29 METAR KBML 210729Z AUTO 00000KT 1 1/4SM BR OVC002 09/09 A3026 RMK AO2 T00940094
                 =
2018-09-21 03:22 METAR KBML 210722Z AUTO 00000KT 3/4SM BR OVC001 09/09 A3026 RMK AO2 T00940094 =
2018-09-21 03:16 METAR KBML 210716Z AUTO 00000KT 1 3/4SM BR OVC001 09/09 A3026 RMK AO2 T00940094
                 =
2018-09-21 03:10 METAR KBML 210710Z AUTO 00000KT 3SM BR OVC001 09/09 A3026 RMK AO2 T00940094 =
2018-09-21 03:02 METAR KBML 210702Z AUTO 00000KT 1 3/4SM BR OVC001 09/09 A3026 RMK AO2 T00940089
                 =
2018-09-21 02:52 METAR KBML 210652Z AUTO 00000KT 4SM BR OVC001 09/09 A3026 RMK AO2 SLP252
                 T00940094 =
2018-09-21 02:47 METAR KBML 210647Z AUTO 00000KT 2SM BR OVC001 09/09 A3027 RMK AO2 =
2018-09-21 02:27 METAR KBML 210627Z AUTO 00000KT 1SM BR OVC001 09/09 A3027 RMK AO2 T00940094 =
2018-09-21 02:25 METAR KBML 210625Z AUTO 00000KT 3/4SM BR VV002 09/09 A3027 RMK AO2 T00940094 =
2018-09-21 02:18 METAR KBML 210618Z AUTO 00000KT 1/4SM FG VV002 09/09 A3027 RMK AO2 T00940094 =
2018-09-21 02:00 METAR KBML 210600Z AUTO 00000KT 1/2SM FG VV002 09/09 A3028 RMK AO2 T00940089 =
2018-09-21 01:52 METAR KBML 210552Z AUTO 00000KT 1/4SM FG VV001 09/09 A3028 RMK AO2 SLP256
                 T00940094 10128 20078 58006 =
2018-09-21 01:45 METAR KBML 210545Z AUTO 00000KT 3/4SM BR VV001 09/09 A3027 RMK AO2 VIS 1/4V5
                 T00940094 =
2018-09-21 01:42 METAR KBML 210542Z AUTO 00000KT 1 1/2SM BR OVC001 09/09 A3027 RMK AO2 VIS 1/2V5
                 T00940094 =
2018-09-21 01:36 METAR KBML 210536Z AUTO 00000KT 4SM BR OVC001 09/09 A3028 RMK AO2 T00940089 =
2018-09-21 01:34 METAR KBML 210534Z AUTO 00000KT 1 3/4SM BR OVC001 09/09 A3028 RMK AO2 T00940089
                 =
2018-09-21 01:26 METAR KBML 210526Z AUTO 00000KT 1/2SM FG VV001 09/09 A3028 RMK AO2 T00940094 =
2018-09-21 01:16 METAR KBML 210516Z AUTO 00000KT 1/4SM FG VV002 09/09 A3028 RMK AO2 T00940094 =
2018-09-21 00:52 METAR KBML 210452Z AUTO 00000KT 1/4SM FG VV001 09/09 A3029 RMK AO2 SLP261
                 T00940094 401890078 =
2018-09-21 00:20 METAR KBML 210420Z AUTO 00000KT 1/4SM FG VV001 09/09 A3029 RMK AO2 T00890089 =
2018-09-21 00:13 METAR KBML 210413Z AUTO 00000KT 1/2SM FG VV001 08/08 A3029 RMK AO2 T00830083 =
2018-09-20 23:56 METAR KBML 210356Z AUTO 00000KT 1/4SM FG VV001 09/08 A3029 RMK AO2 T00890083 =
2018-09-20 23:50 METAR KBML 210350Z AUTO 00000KT 1 1/4SM BR BKN001 08/08 A3029 RMK AO2 T00830083
                 =
2018-09-20 23:48 METAR KBML 210348Z AUTO 00000KT 2SM BR BKN001 08/08 A3029 RMK AO2 VIS 1V5 SLP261
                 T00830078 =
2018-09-20 23:47 METAR KBML 210347Z AUTO 00000KT 2 1/2SM BR BKN001 08/08 A3029 RMK AO2 VIS 1V5 =
2018-09-20 22:52 METAR KBML 210252Z AUTO 00000KT 10SM FEW001 10/09 A3030 RMK AO2 SLP264 T01000089
                 53007 =
2018-09-20 21:52 METAR KBML 210152Z AUTO 00000KT 10SM CLR 11/11 A3028 RMK AO2 SLP258 T01110106 =

Support USWX by starting your Amazon purchase here.